sensor_id;sensor_type;location;lat;lon;timestamp;temperature;humidity
2010;DHT22;1008;47.404;8.502;2023-09-07T00:00:00;22.00;1.00
2010;DHT22;1008;47.404;8.502;2023-09-07T00:02:31;21.80;1.00
2010;DHT22;1008;47.404;8.502;2023-09-07T00:04:58;21.80;1.00
2010;DHT22;1008;47.404;8.502;2023-09-07T00:07:25;21.90;1.00
2010;DHT22;1008;47.404;8.502;2023-09-07T00:09:52;22.00;1.00
2010;DHT22;1008;47.404;8.502;2023-09-07T00:12:18;21.80;1.00
2010;DHT22;1008;47.404;8.502;2023-09-07T00:14:45;21.90;1.00
2010;DHT22;1008;47.404;8.502;2023-09-07T00:17:12;21.90;1.00
2010;DHT22;1008;47.404;8.502;2023-09-07T00:19:40;22.00;1.00
2010;DHT22;1008;47.404;8.502;2023-09-07T00:22:07;22.00;1.00
2010;DHT22;1008;47.404;8.502;2023-09-07T00:24:35;21.90;1.00
2010;DHT22;1008;47.404;8.502;2023-09-07T00:27:01;21.80;1.00
2010;DHT22;1008;47.404;8.502;2023-09-07T00:29:31;22.00;1.00
2010;DHT22;1008;47.404;8.502;2023-09-07T00:31:57;22.00;1.00
2010;DHT22;1008;47.404;8.502;2023-09-07T00:34:24;21.80;1.00
2010;DHT22;1008;47.404;8.502;2023-09-07T00:36:52;21.80;1.00
2010;DHT22;1008;47.404;8.502;2023-09-07T00:39:19;21.60;1.00
2010;DHT22;1008;47.404;8.502;2023-09-07T00:41:45;21.60;1.00
2010;DHT22;1008;47.404;8.502;2023-09-07T00:44:12;21.60;1.00
2010;DHT22;1008;47.404;8.502;2023-09-07T00:46:39;21.50;1.00
2010;DHT22;1008;47.404;8.502;2023-09-07T00:49:06;21.60;1.00
2010;DHT22;1008;47.404;8.502;2023-09-07T00:51:33;21.50;1.00
2010;DHT22;1008;47.404;8.502;2023-09-07T00:54:01;21.40;1.00
2010;DHT22;1008;47.404;8.502;2023-09-07T00:56:28;21.30;1.00
2010;DHT22;1008;47.404;8.502;2023-09-07T00:58:56;21.20;1.00
2010;DHT22;1008;47.404;8.502;2023-09-07T01:01:25;21.30;1.00
2010;DHT22;1008;47.404;8.502;2023-09-07T01:03:52;21.30;1.00
2010;DHT22;1008;47.404;8.502;2023-09-07T01:06:24;21.20;1.00
2010;DHT22;1008;47.404;8.502;2023-09-07T01:08:54;21.20;1.00
2010;DHT22;1008;47.404;8.502;2023-09-07T01:11:23;21.40;1.00
2010;DHT22;1008;47.404;8.502;2023-09-07T01:13:50;21.40;1.00
2010;DHT22;1008;47.404;8.502;2023-09-07T01:16:18;21.40;1.00
2010;DHT22;1008;47.404;8.502;2023-09-07T01:18:46;21.60;1.00
2010;DHT22;1008;47.404;8.502;2023-09-07T01:21:13;21.50;1.00
2010;DHT22;1008;47.404;8.502;2023-09-07T01:23:42;21.50;1.00
2010;DHT22;1008;47.404;8.502;2023-09-07T01:26:10;21.60;1.00
2010;DHT22;1008;47.404;8.502;2023-09-07T01:28:37;21.60;1.00
2010;DHT22;1008;47.404;8.502;2023-09-07T01:31:05;21.60;1.00
2010;DHT22;1008;47.404;8.502;2023-09-07T01:33:31;21.60;1.00
2010;DHT22;1008;47.404;8.502;2023-09-07T01:35:58;21.50;1.00
2010;DHT22;1008;47.404;8.502;2023-09-07T01:38:25;21.60;1.00
2010;DHT22;1008;47.404;8.502;2023-09-07T01:40:53;21.50;1.00
2010;DHT22;1008;47.404;8.502;2023-09-07T01:43:20;21.70;1.00
2010;DHT22;1008;47.404;8.502;2023-09-07T01:45:50;21.40;1.00
2010;DHT22;1008;47.404;8.502;2023-09-07T01:48:16;21.30;1.00
2010;DHT22;1008;47.404;8.502;2023-09-07T01:50:43;21.20;1.00
2010;DHT22;1008;47.404;8.502;2023-09-07T01:53:10;21.20;1.00
2010;DHT22;1008;47.404;8.502;2023-09-07T01:55:37;21.20;1.00
2010;DHT22;1008;47.404;8.502;2023-09-07T01:58:05;21.10;1.00
2010;DHT22;1008;47.404;8.502;2023-09-07T02:00:36;21.00;1.00
2010;DHT22;1008;47.404;8.502;2023-09-07T02:03:03;20.90;1.00
2010;DHT22;1008;47.404;8.502;2023-09-07T02:05:30;21.00;1.00
2010;DHT22;1008;47.404;8.502;2023-09-07T02:07:57;20.90;1.00
2010;DHT22;1008;47.404;8.502;2023-09-07T02:10:24;20.90;1.00
2010;DHT22;1008;47.404;8.502;2023-09-07T02:12:51;21.00;1.00
2010;DHT22;1008;47.404;8.502;2023-09-07T02:15:19;20.90;1.00
2010;DHT22;1008;47.404;8.502;2023-09-07T02:17:46;21.00;1.00
2010;DHT22;1008;47.404;8.502;2023-09-07T02:20:13;21.10;1.00
2010;DHT22;1008;47.404;8.502;2023-09-07T02:22:39;21.20;1.00
2010;DHT22;1008;47.404;8.502;2023-09-07T02:25:07;21.20;1.00
2010;DHT22;1008;47.404;8.502;2023-09-07T02:27:33;21.20;1.00
2010;DHT22;1008;47.404;8.502;2023-09-07T02:30:00;21.30;1.00
2010;DHT22;1008;47.404;8.502;2023-09-07T02:32:29;21.30;1.00
2010;DHT22;1008;47.404;8.502;2023-09-07T02:34:56;21.30;1.00
2010;DHT22;1008;47.404;8.502;2023-09-07T02:37:23;21.40;1.00
2010;DHT22;1008;47.404;8.502;2023-09-07T02:39:50;21.30;1.00
2010;DHT22;1008;47.404;8.502;2023-09-07T02:42:17;21.00;1.00
2010;DHT22;1008;47.404;8.502;2023-09-07T02:44:43;21.10;1.00
2010;DHT22;1008;47.404;8.502;2023-09-07T02:47:10;21.00;1.00
2010;DHT22;1008;47.404;8.502;2023-09-07T02:51:44;20.90;1.00
2010;DHT22;1008;47.404;8.502;2023-09-07T02:54:11;20.90;1.00
2010;DHT22;1008;47.404;8.502;2023-09-07T02:56:38;20.80;1.00
2010;DHT22;1008;47.404;8.502;2023-09-07T02:59:05;20.90;1.00
2010;DHT22;1008;47.404;8.502;2023-09-07T03:01:31;21.00;1.00
2010;DHT22;1008;47.404;8.502;2023-09-07T03:03:58;20.90;1.00
2010;DHT22;1008;47.404;8.502;2023-09-07T03:06:25;20.90;1.00
2010;DHT22;1008;47.404;8.502;2023-09-07T03:08:53;20.90;1.00
2010;DHT22;1008;47.404;8.502;2023-09-07T03:11:19;20.90;1.00
2010;DHT22;1008;47.404;8.502;2023-09-07T03:13:46;20.80;1.00
2010;DHT22;1008;47.404;8.502;2023-09-07T03:16:13;20.80;1.00
2010;DHT22;1008;47.404;8.502;2023-09-07T03:18:40;20.80;1.00
2010;DHT22;1008;47.404;8.502;2023-09-07T03:21:07;20.80;1.00
2010;DHT22;1008;47.404;8.502;2023-09-07T03:23:34;20.90;1.00
2010;DHT22;1008;47.404;8.502;2023-09-07T03:26:02;20.70;1.00
2010;DHT22;1008;47.404;8.502;2023-09-07T03:28:29;20.80;1.00
2010;DHT22;1008;47.404;8.502;2023-09-07T03:30:56;20.80;1.00
2010;DHT22;1008;47.404;8.502;2023-09-07T03:33:22;20.80;1.00
2010;DHT22;1008;47.404;8.502;2023-09-07T03:35:49;20.80;1.00
2010;DHT22;1008;47.404;8.502;2023-09-07T03:38:17;20.70;1.00
2010;DHT22;1008;47.404;8.502;2023-09-07T03:40:44;20.70;1.00
2010;DHT22;1008;47.404;8.502;2023-09-07T03:43:12;20.70;1.00
2010;DHT22;1008;47.404;8.502;2023-09-07T03:45:38;20.60;1.00
2010;DHT22;1008;47.404;8.502;2023-09-07T03:48:06;20.60;1.00
2010;DHT22;1008;47.404;8.502;2023-09-07T03:50:34;20.60;1.00
2010;DHT22;1008;47.404;8.502;2023-09-07T03:53:01;20.50;1.00
2010;DHT22;1008;47.404;8.502;2023-09-07T03:55:28;20.30;1.00
2010;DHT22;1008;47.404;8.502;2023-09-07T03:57:54;20.30;1.00
2010;DHT22;1008;47.404;8.502;2023-09-07T04:00:22;20.40;1.00
2010;DHT22;1008;47.404;8.502;2023-09-07T04:02:49;20.50;1.00
2010;DHT22;1008;47.404;8.502;2023-09-07T04:05:16;20.40;1.00
2010;DHT22;1008;47.404;8.502;2023-09-07T04:07:43;20.30;1.00
2010;DHT22;1008;47.404;8.502;2023-09-07T04:10:09;20.30;1.00
2010;DHT22;1008;47.404;8.502;2023-09-07T04:12:36;20.30;1.00
2010;DHT22;1008;47.404;8.502;2023-09-07T04:15:03;20.10;1.00
2010;DHT22;1008;47.404;8.502;2023-09-07T04:17:31;20.10;1.00
2010;DHT22;1008;47.404;8.502;2023-09-07T04:20:06;20.00;1.00
2010;DHT22;1008;47.404;8.502;2023-09-07T04:22:33;19.90;1.00
2010;DHT22;1008;47.404;8.502;2023-09-07T04:25:00;20.00;1.00
2010;DHT22;1008;47.404;8.502;2023-09-07T04:27:27;20.10;1.00
2010;DHT22;1008;47.404;8.502;2023-09-07T04:29:53;20.20;1.00
2010;DHT22;1008;47.404;8.502;2023-09-07T04:32:20;20.20;1.00
2010;DHT22;1008;47.404;8.502;2023-09-07T04:34:53;20.20;1.00
2010;DHT22;1008;47.404;8.502;2023-09-07T04:37:19;20.10;1.00
2010;DHT22;1008;47.404;8.502;2023-09-07T04:39:46;20.20;1.00
2010;DHT22;1008;47.404;8.502;2023-09-07T04:42:13;20.20;1.00
2010;DHT22;1008;47.404;8.502;2023-09-07T04:44:40;20.20;1.00
2010;DHT22;1008;47.404;8.502;2023-09-07T04:47:06;20.10;1.00
2010;DHT22;1008;47.404;8.502;2023-09-07T04:49:33;20.20;1.00
2010;DHT22;1008;47.404;8.502;2023-09-07T04:52:01;20.20;1.00
2010;DHT22;1008;47.404;8.502;2023-09-07T04:54:28;20.30;1.00
2010;DHT22;1008;47.404;8.502;2023-09-07T04:56:55;20.20;1.00
2010;DHT22;1008;47.404;8.502;2023-09-07T04:59:21;20.20;1.00
2010;DHT22;1008;47.404;8.502;2023-09-07T05:01:48;20.10;1.00
2010;DHT22;1008;47.404;8.502;2023-09-07T05:04:15;20.00;1.00
2010;DHT22;1008;47.404;8.502;2023-09-07T05:06:41;19.90;1.00
2010;DHT22;1008;47.404;8.502;2023-09-07T05:09:10;20.10;1.00
2010;DHT22;1008;47.404;8.502;2023-09-07T05:11:37;20.10;1.00
2010;DHT22;1008;47.404;8.502;2023-09-07T05:14:04;20.00;1.00
2010;DHT22;1008;47.404;8.502;2023-09-07T05:16:30;20.00;1.00
2010;DHT22;1008;47.404;8.502;2023-09-07T05:18:57;19.90;1.00
2010;DHT22;1008;47.404;8.502;2023-09-07T05:21:24;20.00;1.00
2010;DHT22;1008;47.404;8.502;2023-09-07T05:23:51;20.00;1.00
2010;DHT22;1008;47.404;8.502;2023-09-07T05:26:22;20.10;1.00
2010;DHT22;1008;47.404;8.502;2023-09-07T05:28:49;20.20;1.00
2010;DHT22;1008;47.404;8.502;2023-09-07T05:31:16;20.20;1.00
2010;DHT22;1008;47.404;8.502;2023-09-07T05:33:43;20.20;1.00
2010;DHT22;1008;47.404;8.502;2023-09-07T05:36:09;20.20;1.00
2010;DHT22;1008;47.404;8.502;2023-09-07T05:38:36;20.00;1.00
2010;DHT22;1008;47.404;8.502;2023-09-07T05:41:03;20.00;1.00
2010;DHT22;1008;47.404;8.502;2023-09-07T05:43:31;20.10;1.00
2010;DHT22;1008;47.404;8.502;2023-09-07T05:45:58;20.10;1.00
2010;DHT22;1008;47.404;8.502;2023-09-07T05:48:24;20.00;1.00
2010;DHT22;1008;47.404;8.502;2023-09-07T05:50:51;19.90;1.00
2010;DHT22;1008;47.404;8.502;2023-09-07T05:53:19;19.70;1.00
2010;DHT22;1008;47.404;8.502;2023-09-07T05:55:46;19.60;1.00
2010;DHT22;1008;47.404;8.502;2023-09-07T05:58:13;19.70;1.00
2010;DHT22;1008;47.404;8.502;2023-09-07T06:00:41;19.70;1.00
2010;DHT22;1008;47.404;8.502;2023-09-07T06:03:08;19.90;1.00
2010;DHT22;1008;47.404;8.502;2023-09-07T06:05:36;20.00;1.00
2010;DHT22;1008;47.404;8.502;2023-09-07T06:08:04;20.10;1.00
2010;DHT22;1008;47.404;8.502;2023-09-07T06:10:31;20.30;1.00
2010;DHT22;1008;47.404;8.502;2023-09-07T06:12:58;20.40;1.00
2010;DHT22;1008;47.404;8.502;2023-09-07T06:15:26;20.50;1.00
2010;DHT22;1008;47.404;8.502;2023-09-07T06:17:54;20.60;1.00
2010;DHT22;1008;47.404;8.502;2023-09-07T06:20:20;20.80;1.00
2010;DHT22;1008;47.404;8.502;2023-09-07T06:22:47;20.80;1.00
2010;DHT22;1008;47.404;8.502;2023-09-07T06:25:14;20.80;1.00
2010;DHT22;1008;47.404;8.502;2023-09-07T06:27:41;20.70;1.00
2010;DHT22;1008;47.404;8.502;2023-09-07T06:30:09;20.70;1.00
2010;DHT22;1008;47.404;8.502;2023-09-07T06:32:36;20.80;1.00
2010;DHT22;1008;47.404;8.502;2023-09-07T06:35:06;20.80;1.00
2010;DHT22;1008;47.404;8.502;2023-09-07T06:37:33;20.80;1.00
2010;DHT22;1008;47.404;8.502;2023-09-07T06:40:01;21.00;1.00
2010;DHT22;1008;47.404;8.502;2023-09-07T06:42:29;21.10;1.00
2010;DHT22;1008;47.404;8.502;2023-09-07T06:44:56;21.20;1.00
2010;DHT22;1008;47.404;8.502;2023-09-07T06:47:23;21.00;1.00
2010;DHT22;1008;47.404;8.502;2023-09-07T06:49:49;21.10;1.00
2010;DHT22;1008;47.404;8.502;2023-09-07T06:52:17;21.20;1.00
2010;DHT22;1008;47.404;8.502;2023-09-07T06:54:44;21.20;1.00
2010;DHT22;1008;47.404;8.502;2023-09-07T06:57:11;21.30;1.00
2010;DHT22;1008;47.404;8.502;2023-09-07T06:59:37;21.40;1.00
2010;DHT22;1008;47.404;8.502;2023-09-07T07:02:04;21.60;1.00
2010;DHT22;1008;47.404;8.502;2023-09-07T07:04:31;21.70;1.00
2010;DHT22;1008;47.404;8.502;2023-09-07T07:06:58;21.90;1.00
2010;DHT22;1008;47.404;8.502;2023-09-07T07:09:27;21.90;1.00
2010;DHT22;1008;47.404;8.502;2023-09-07T07:11:55;22.00;1.00
2010;DHT22;1008;47.404;8.502;2023-09-07T07:14:21;22.00;1.00
2010;DHT22;1008;47.404;8.502;2023-09-07T07:16:48;22.00;1.00
2010;DHT22;1008;47.404;8.502;2023-09-07T07:19:15;22.00;1.00
2010;DHT22;1008;47.404;8.502;2023-09-07T07:21:41;22.00;1.00
2010;DHT22;1008;47.404;8.502;2023-09-07T07:24:08;22.10;1.00
2010;DHT22;1008;47.404;8.502;2023-09-07T07:26:36;22.20;1.00
2010;DHT22;1008;47.404;8.502;2023-09-07T07:29:03;22.30;1.00
2010;DHT22;1008;47.404;8.502;2023-09-07T07:31:30;22.30;1.00
2010;DHT22;1008;47.404;8.502;2023-09-07T07:33:56;22.30;1.00
2010;DHT22;1008;47.404;8.502;2023-09-07T07:36:24;22.30;1.00
2010;DHT22;1008;47.404;8.502;2023-09-07T07:38:50;22.40;1.00
2010;DHT22;1008;47.404;8.502;2023-09-07T07:41:17;22.50;1.00
2010;DHT22;1008;47.404;8.502;2023-09-07T07:43:45;22.50;1.00
2010;DHT22;1008;47.404;8.502;2023-09-07T07:46:12;22.70;1.00
2010;DHT22;1008;47.404;8.502;2023-09-07T07:48:41;22.90;1.00
2010;DHT22;1008;47.404;8.502;2023-09-07T07:51:08;22.90;1.00
2010;DHT22;1008;47.404;8.502;2023-09-07T07:53:34;22.80;1.00
2010;DHT22;1008;47.404;8.502;2023-09-07T07:56:01;22.90;1.00
2010;DHT22;1008;47.404;8.502;2023-09-07T07:58:28;22.80;1.00
2010;DHT22;1008;47.404;8.502;2023-09-07T08:00:56;23.10;1.00
2010;DHT22;1008;47.404;8.502;2023-09-07T08:03:24;23.20;1.00
2010;DHT22;1008;47.404;8.502;2023-09-07T08:05:51;23.30;1.00
2010;DHT22;1008;47.404;8.502;2023-09-07T08:08:17;23.50;1.00
2010;DHT22;1008;47.404;8.502;2023-09-07T08:10:44;23.60;1.00
2010;DHT22;1008;47.404;8.502;2023-09-07T08:13:12;23.60;1.00
2010;DHT22;1008;47.404;8.502;2023-09-07T08:15:39;23.60;1.00
2010;DHT22;1008;47.404;8.502;2023-09-07T08:18:07;23.50;1.00
2010;DHT22;1008;47.404;8.502;2023-09-07T08:20:34;23.70;1.00
2010;DHT22;1008;47.404;8.502;2023-09-07T08:23:01;24.10;1.00
2010;DHT22;1008;47.404;8.502;2023-09-07T08:25:32;24.20;1.00
2010;DHT22;1008;47.404;8.502;2023-09-07T08:27:59;24.50;1.00
2010;DHT22;1008;47.404;8.502;2023-09-07T08:30:25;24.80;1.00
2010;DHT22;1008;47.404;8.502;2023-09-07T08:32:52;24.80;1.00
2010;DHT22;1008;47.404;8.502;2023-09-07T08:35:20;24.80;1.00
2010;DHT22;1008;47.404;8.502;2023-09-07T08:37:52;25.00;1.00
2010;DHT22;1008;47.404;8.502;2023-09-07T08:40:19;25.00;99.90
2010;DHT22;1008;47.404;8.502;2023-09-07T08:42:46;24.90;99.90
2010;DHT22;1008;47.404;8.502;2023-09-07T08:45:14;25.00;99.90
2010;DHT22;1008;47.404;8.502;2023-09-07T08:47:45;25.50;99.90
2010;DHT22;1008;47.404;8.502;2023-09-07T08:50:13;25.60;99.90
2010;DHT22;1008;47.404;8.502;2023-09-07T08:52:43;25.70;99.90
2010;DHT22;1008;47.404;8.502;2023-09-07T08:55:12;25.70;99.90
2010;DHT22;1008;47.404;8.502;2023-09-07T08:57:39;25.80;99.90
2010;DHT22;1008;47.404;8.502;2023-09-07T09:00:07;26.00;99.90
2010;DHT22;1008;47.404;8.502;2023-09-07T09:02:39;26.30;99.90
2010;DHT22;1008;47.404;8.502;2023-09-07T09:05:09;26.60;99.90
2010;DHT22;1008;47.404;8.502;2023-09-07T09:07:36;26.80;99.90
2010;DHT22;1008;47.404;8.502;2023-09-07T09:10:06;27.30;99.90
2010;DHT22;1008;47.404;8.502;2023-09-07T09:12:32;27.30;99.90
2010;DHT22;1008;47.404;8.502;2023-09-07T09:15:00;27.10;99.90
2010;DHT22;1008;47.404;8.502;2023-09-07T09:17:27;26.90;99.90
2010;DHT22;1008;47.404;8.502;2023-09-07T09:19:53;26.70;99.90
2010;DHT22;1008;47.404;8.502;2023-09-07T09:22:20;27.00;99.90
2010;DHT22;1008;47.404;8.502;2023-09-07T09:24:47;27.20;99.90
2010;DHT22;1008;47.404;8.502;2023-09-07T09:27:15;27.30;99.90
2010;DHT22;1008;47.404;8.502;2023-09-07T09:29:42;27.70;99.90
2010;DHT22;1008;47.404;8.502;2023-09-07T09:32:10;28.10;99.90
2010;DHT22;1008;47.404;8.502;2023-09-07T09:34:40;28.00;99.90
2010;DHT22;1008;47.404;8.502;2023-09-07T09:37:13;27.80;99.90
2010;DHT22;1008;47.404;8.502;2023-09-07T09:39:40;27.40;99.90
2010;DHT22;1008;47.404;8.502;2023-09-07T09:42:08;27.90;99.90
2010;DHT22;1008;47.404;8.502;2023-09-07T09:44:37;27.80;99.90
2010;DHT22;1008;47.404;8.502;2023-09-07T09:47:06;28.10;99.90
2010;DHT22;1008;47.404;8.502;2023-09-07T09:49:33;28.20;99.90
2010;DHT22;1008;47.404;8.502;2023-09-07T09:52:00;28.40;99.90
2010;DHT22;1008;47.404;8.502;2023-09-07T09:54:28;28.60;99.90
2010;DHT22;1008;47.404;8.502;2023-09-07T09:56:54;28.50;99.90
2010;DHT22;1008;47.404;8.502;2023-09-07T09:59:24;28.60;99.90
2010;DHT22;1008;47.404;8.502;2023-09-07T10:01:53;28.80;99.90
2010;DHT22;1008;47.404;8.502;2023-09-07T10:04:22;29.30;99.90
2010;DHT22;1008;47.404;8.502;2023-09-07T10:06:58;29.20;99.90
2010;DHT22;1008;47.404;8.502;2023-09-07T10:09:29;29.10;99.90
2010;DHT22;1008;47.404;8.502;2023-09-07T10:11:58;29.20;99.90
2010;DHT22;1008;47.404;8.502;2023-09-07T10:14:25;29.30;99.90
2010;DHT22;1008;47.404;8.502;2023-09-07T10:16:54;29.50;99.90
2010;DHT22;1008;47.404;8.502;2023-09-07T10:19:25;29.80;99.90
2010;DHT22;1008;47.404;8.502;2023-09-07T10:21:54;29.80;99.90
2010;DHT22;1008;47.404;8.502;2023-09-07T10:24:24;30.00;99.90
2010;DHT22;1008;47.404;8.502;2023-09-07T10:26:59;30.10;99.90
2010;DHT22;1008;47.404;8.502;2023-09-07T10:29:27;29.90;99.90
2010;DHT22;1008;47.404;8.502;2023-09-07T10:31:55;29.80;99.90
2010;DHT22;1008;47.404;8.502;2023-09-07T10:34:22;29.80;99.90
2010;DHT22;1008;47.404;8.502;2023-09-07T10:37:00;29.70;99.90
2010;DHT22;1008;47.404;8.502;2023-09-07T10:39:31;30.00;99.90
2010;DHT22;1008;47.404;8.502;2023-09-07T10:41:57;30.10;99.90
2010;DHT22;1008;47.404;8.502;2023-09-07T10:44:29;30.00;99.90
2010;DHT22;1008;47.404;8.502;2023-09-07T10:46:58;30.00;99.90
2010;DHT22;1008;47.404;8.502;2023-09-07T10:49:24;30.40;99.90
2010;DHT22;1008;47.404;8.502;2023-09-07T10:51:51;30.60;99.90
2010;DHT22;1008;47.404;8.502;2023-09-07T10:54:22;30.90;99.90
2010;DHT22;1008;47.404;8.502;2023-09-07T10:56:49;30.60;99.90
2010;DHT22;1008;47.404;8.502;2023-09-07T10:59:17;30.30;99.90
2010;DHT22;1008;47.404;8.502;2023-09-07T11:01:44;29.70;99.90
2010;DHT22;1008;47.404;8.502;2023-09-07T11:04:12;29.70;99.90
2010;DHT22;1008;47.404;8.502;2023-09-07T11:06:40;29.90;99.90
2010;DHT22;1008;47.404;8.502;2023-09-07T11:09:08;29.70;99.90
2010;DHT22;1008;47.404;8.502;2023-09-07T11:11:36;29.70;99.90
2010;DHT22;1008;47.404;8.502;2023-09-07T11:14:03;29.70;99.90
2010;DHT22;1008;47.404;8.502;2023-09-07T11:16:30;30.10;99.90
2010;DHT22;1008;47.404;8.502;2023-09-07T11:18:57;30.70;99.90
2010;DHT22;1008;47.404;8.502;2023-09-07T11:21:27;31.00;99.90
2010;DHT22;1008;47.404;8.502;2023-09-07T11:23:53;31.20;99.90
2010;DHT22;1008;47.404;8.502;2023-09-07T11:26:20;31.30;99.90
2010;DHT22;1008;47.404;8.502;2023-09-07T11:28:48;31.50;99.90
2010;DHT22;1008;47.404;8.502;2023-09-07T11:31:18;31.80;99.90
2010;DHT22;1008;47.404;8.502;2023-09-07T11:33:46;31.70;99.90
2010;DHT22;1008;47.404;8.502;2023-09-07T11:36:13;31.70;99.90
2010;DHT22;1008;47.404;8.502;2023-09-07T11:38:43;31.30;99.90
2010;DHT22;1008;47.404;8.502;2023-09-07T11:41:10;31.40;99.90
2010;DHT22;1008;47.404;8.502;2023-09-07T11:43:37;31.30;99.90
2010;DHT22;1008;47.404;8.502;2023-09-07T11:46:05;31.10;99.90
2010;DHT22;1008;47.404;8.502;2023-09-07T11:48:32;31.40;99.90
2010;DHT22;1008;47.404;8.502;2023-09-07T11:50:59;31.90;99.90
2010;DHT22;1008;47.404;8.502;2023-09-07T11:53:26;31.80;99.90
2010;DHT22;1008;47.404;8.502;2023-09-07T11:55:54;32.10;99.90
2010;DHT22;1008;47.404;8.502;2023-09-07T11:58:21;32.20;99.90
2010;DHT22;1008;47.404;8.502;2023-09-07T12:00:47;32.40;99.90
2010;DHT22;1008;47.404;8.502;2023-09-07T12:03:14;32.60;99.90
2010;DHT22;1008;47.404;8.502;2023-09-07T12:05:41;32.90;99.90
2010;DHT22;1008;47.404;8.502;2023-09-07T12:08:09;32.50;99.90
2010;DHT22;1008;47.404;8.502;2023-09-07T12:10:36;32.50;99.90
2010;DHT22;1008;47.404;8.502;2023-09-07T12:13:04;32.20;99.90
2010;DHT22;1008;47.404;8.502;2023-09-07T12:15:31;32.30;99.90
2010;DHT22;1008;47.404;8.502;2023-09-07T12:17:57;32.50;99.90
2010;DHT22;1008;47.404;8.502;2023-09-07T12:20:24;32.70;99.90
2010;DHT22;1008;47.404;8.502;2023-09-07T12:22:51;32.70;99.90
2010;DHT22;1008;47.404;8.502;2023-09-07T12:25:17;32.80;99.90
2010;DHT22;1008;47.404;8.502;2023-09-07T12:27:44;33.00;99.90
2010;DHT22;1008;47.404;8.502;2023-09-07T12:30:13;33.10;99.90
2010;DHT22;1008;47.404;8.502;2023-09-07T12:32:44;32.70;99.90
2010;DHT22;1008;47.404;8.502;2023-09-07T12:35:10;32.50;99.90
2010;DHT22;1008;47.404;8.502;2023-09-07T12:37:37;32.70;99.90
2010;DHT22;1008;47.404;8.502;2023-09-07T12:40:04;32.60;99.90
2010;DHT22;1008;47.404;8.502;2023-09-07T12:42:38;32.90;99.90
2010;DHT22;1008;47.404;8.502;2023-09-07T12:45:06;33.00;99.90
2010;DHT22;1008;47.404;8.502;2023-09-07T12:47:34;32.70;99.90
2010;DHT22;1008;47.404;8.502;2023-09-07T12:50:00;32.40;99.90
2010;DHT22;1008;47.404;8.502;2023-09-07T12:52:27;32.10;99.90
2010;DHT22;1008;47.404;8.502;2023-09-07T12:54:54;32.50;99.90
2010;DHT22;1008;47.404;8.502;2023-09-07T12:57:21;32.70;99.90
2010;DHT22;1008;47.404;8.502;2023-09-07T12:59:47;32.70;99.90
2010;DHT22;1008;47.404;8.502;2023-09-07T13:02:14;32.90;99.90
2010;DHT22;1008;47.404;8.502;2023-09-07T13:04:42;33.20;99.90
2010;DHT22;1008;47.404;8.502;2023-09-07T13:07:09;33.20;99.90
2010;DHT22;1008;47.404;8.502;2023-09-07T13:09:36;33.10;99.90
2010;DHT22;1008;47.404;8.502;2023-09-07T13:12:03;33.10;99.90
2010;DHT22;1008;47.404;8.502;2023-09-07T13:14:30;32.80;99.90
2010;DHT22;1008;47.404;8.502;2023-09-07T13:16:56;33.10;99.90
2010;DHT22;1008;47.404;8.502;2023-09-07T13:19:23;32.70;99.90
2010;DHT22;1008;47.404;8.502;2023-09-07T13:21:52;32.90;99.90
2010;DHT22;1008;47.404;8.502;2023-09-07T13:24:19;33.20;99.90
2010;DHT22;1008;47.404;8.502;2023-09-07T13:26:46;32.90;99.90
2010;DHT22;1008;47.404;8.502;2023-09-07T13:29:16;32.60;99.90
2010;DHT22;1008;47.404;8.502;2023-09-07T13:31:43;32.90;99.90
2010;DHT22;1008;47.404;8.502;2023-09-07T13:34:09;32.80;99.90
2010;DHT22;1008;47.404;8.502;2023-09-07T13:36:36;33.00;99.90
2010;DHT22;1008;47.404;8.502;2023-09-07T13:39:05;33.10;99.90
2010;DHT22;1008;47.404;8.502;2023-09-07T13:41:32;32.90;99.90
2010;DHT22;1008;47.404;8.502;2023-09-07T13:43:58;32.90;99.90
2010;DHT22;1008;47.404;8.502;2023-09-07T13:46:25;32.90;99.90
2010;DHT22;1008;47.404;8.502;2023-09-07T13:48:52;32.60;99.90
2010;DHT22;1008;47.404;8.502;2023-09-07T13:51:19;32.90;99.90
2010;DHT22;1008;47.404;8.502;2023-09-07T13:53:46;33.00;99.90
2010;DHT22;1008;47.404;8.502;2023-09-07T13:56:14;32.80;99.90
2010;DHT22;1008;47.404;8.502;2023-09-07T13:58:40;32.90;99.90
2010;DHT22;1008;47.404;8.502;2023-09-07T14:01:07;32.90;99.90
2010;DHT22;1008;47.404;8.502;2023-09-07T14:03:34;33.10;99.90
2010;DHT22;1008;47.404;8.502;2023-09-07T14:06:02;33.40;99.90
2010;DHT22;1008;47.404;8.502;2023-09-07T14:08:29;33.20;99.90
2010;DHT22;1008;47.404;8.502;2023-09-07T14:10:58;33.00;99.90
2010;DHT22;1008;47.404;8.502;2023-09-07T14:13:26;33.20;99.90
2010;DHT22;1008;47.404;8.502;2023-09-07T14:15:53;32.30;99.90
2010;DHT22;1008;47.404;8.502;2023-09-07T14:18:20;32.00;99.90
2010;DHT22;1008;47.404;8.502;2023-09-07T14:20:46;32.30;99.90
2010;DHT22;1008;47.404;8.502;2023-09-07T14:23:13;32.50;99.90
2010;DHT22;1008;47.404;8.502;2023-09-07T14:25:40;32.30;99.90
2010;DHT22;1008;47.404;8.502;2023-09-07T14:28:07;32.50;99.90
2010;DHT22;1008;47.404;8.502;2023-09-07T14:30:35;32.70;99.90
2010;DHT22;1008;47.404;8.502;2023-09-07T14:33:02;32.80;99.90
2010;DHT22;1008;47.404;8.502;2023-09-07T14:35:30;33.00;99.90
2010;DHT22;1008;47.404;8.502;2023-09-07T14:37:57;33.20;99.90
2010;DHT22;1008;47.404;8.502;2023-09-07T14:40:23;33.20;99.90
2010;DHT22;1008;47.404;8.502;2023-09-07T14:42:50;33.20;99.90
2010;DHT22;1008;47.404;8.502;2023-09-07T14:45:18;33.20;99.90
2010;DHT22;1008;47.404;8.502;2023-09-07T14:47:46;33.00;99.90
2010;DHT22;1008;47.404;8.502;2023-09-07T14:50:13;33.00;99.90
2010;DHT22;1008;47.404;8.502;2023-09-07T14:52:40;33.10;99.90
2010;DHT22;1008;47.404;8.502;2023-09-07T14:55:09;33.10;99.90
2010;DHT22;1008;47.404;8.502;2023-09-07T14:57:36;33.20;99.90
2010;DHT22;1008;47.404;8.502;2023-09-07T15:00:03;33.20;99.90
2010;DHT22;1008;47.404;8.502;2023-09-07T15:02:30;32.80;99.90
2010;DHT22;1008;47.404;8.502;2023-09-07T15:04:58;32.80;99.90
2010;DHT22;1008;47.404;8.502;2023-09-07T15:07:25;32.30;99.90
2010;DHT22;1008;47.404;8.502;2023-09-07T15:09:51;32.30;99.90
2010;DHT22;1008;47.404;8.502;2023-09-07T15:12:19;32.30;99.90
2010;DHT22;1008;47.404;8.502;2023-09-07T15:14:45;32.20;99.90
2010;DHT22;1008;47.404;8.502;2023-09-07T15:17:14;32.10;99.90
2010;DHT22;1008;47.404;8.502;2023-09-07T15:19:42;32.20;99.90
2010;DHT22;1008;47.404;8.502;2023-09-07T15:22:10;32.40;99.90
2010;DHT22;1008;47.404;8.502;2023-09-07T15:24:37;32.60;99.90
2010;DHT22;1008;47.404;8.502;2023-09-07T15:27:07;32.50;99.90
2010;DHT22;1008;47.404;8.502;2023-09-07T15:29:34;32.60;99.90
2010;DHT22;1008;47.404;8.502;2023-09-07T15:32:01;32.20;99.90
2010;DHT22;1008;47.404;8.502;2023-09-07T15:34:28;32.10;99.90
2010;DHT22;1008;47.404;8.502;2023-09-07T15:36:54;32.10;99.90
2010;DHT22;1008;47.404;8.502;2023-09-07T15:39:22;31.90;99.90
2010;DHT22;1008;47.404;8.502;2023-09-07T15:41:49;32.00;99.90
2010;DHT22;1008;47.404;8.502;2023-09-07T15:44:18;32.00;99.90
2010;DHT22;1008;47.404;8.502;2023-09-07T15:46:44;32.20;99.90
2010;DHT22;1008;47.404;8.502;2023-09-07T15:49:11;32.50;99.90
2010;DHT22;1008;47.404;8.502;2023-09-07T15:51:38;32.60;99.90
2010;DHT22;1008;47.404;8.502;2023-09-07T15:54:05;32.60;99.90
2010;DHT22;1008;47.404;8.502;2023-09-07T15:56:33;32.60;99.90
2010;DHT22;1008;47.404;8.502;2023-09-07T15:58:59;32.60;99.90
2010;DHT22;1008;47.404;8.502;2023-09-07T16:01:26;32.50;99.90
2010;DHT22;1008;47.404;8.502;2023-09-07T16:03:53;32.50;99.90
2010;DHT22;1008;47.404;8.502;2023-09-07T16:06:20;32.60;99.90
2010;DHT22;1008;47.404;8.502;2023-09-07T16:08:46;32.70;99.90
2010;DHT22;1008;47.404;8.502;2023-09-07T16:11:13;32.70;99.90